Str Lee A Tregurtha — WUR8857 — position and weather

sailwx.info

Track history (hours):
 
Tides and Currents Weather Stations Pressure Air Temp Water Temp Dewpoint Dewpoint Depression Visibility Wind Speed Wind Dir Waves Ship Positions

Str Lee A Tregurtha

Owner: THE INTERLAKE STEAMSHIP COMPANY, Middleburg Heights, OH. More information available from US FCC via Universal Licensing System and Coast Guard Vessel Documentation Center.

Last reported at 2017-Nov-23 14:00 UTC. Time now 2017-Nov-23 15:21 UTC.
Position N 46°36' W 087°24'.

Length 252 m; draft 8.4 m.

Type: Cargo ship. MMSI: 366904950.

Wind from 200 at 1 knots

Barometer 1012.5 mb
Air temperature -1.5 ° C
Water temperature 5.2 ° C

Date/timePositionNaut miles runAvg speedWind from/ knotsBaromVisibWave heightAir tempDewpointWater temp
2017-Nov-23 14:00N 46°36' W 087°24'0 0.0 200 / 11012.5 -1.5 5.2
2017-Nov-23 13:00N 46°36' W 087°24'0 0.0 120 / 11012.9 -1.6 5.1
2017-Nov-23 12:00N 46°36' W 087°24'0 0.0 230 / 21012.9 -1.6 5.2
2017-Nov-23 11:00N 46°36' W 087°24'4 4.1 090 / 11013.5 -1.7 5.3
2017-Nov-23 10:00N 46°36' W 087°18'1616.5 250 / 141012.9 -1.6 6.1
2017-Nov-23 09:00N 46°36' W 086°54'1212.4 230 / 201012.9 -1.9 5.8
2017-Nov-23 08:00N 46°36' W 086°36'8 8.2 240 / 161013.5 -1.5 6.0
2017-Nov-23 07:00N 46°36' W 086°24'1413.7 230 / 201014.2 -1.5 6.3
2017-Nov-23 06:00N 46°42' W 086°06'1413.7 240 / 221014.2 -1.0 6.2
2017-Nov-23 05:00N 46°48' W 085°48'1413.7 210 / 211015.2 -1.8 6.5
2017-Nov-23 04:00N 46°42' W 085°30'1010.2 210 / 241014.9 -2.0 6.6
2017-Nov-23 03:00N 46°48' W 085°18'1212.3 210 / 181016.6 -2.0 5.7
2017-Nov-23 02:00N 46°48' W 085°00'1514.6 220 / 121018.3 -2.2 6.3
2017-Nov-23 01:00N 46°36' W 084°48'1010.2 220 / 111019.010.8 -1.0 7.3
2017-Nov-23 00:00N 46°30' W 084°36'8 8.3 220 / 81020.3 -1.6 6.0
2017-Nov-22 23:00N 46°30' W 084°24'0 0.0 220 / 101021.0 -2.1 5.5
2017-Nov-22 22:00N 46°30' W 084°24'4 4.1 230 / 101022.0 -1.7 5.6
2017-Nov-22 21:00N 46°30' W 084°18'0 0.0 250 / 101021.5 -1.6 5.6
2017-Nov-22 20:00N 46°30' W 084°18'0 0.0 130 / 31021.5 -2.8 5.6
2017-Nov-22 19:00N 46°30' W 084°18'7 7.3 160 / 31022.1 -2.8 5.5
2017-Nov-22 18:00N 46°24' W 084°12'7 7.3 240 / 21022.5 -2.6 5.5
2017-Nov-22 17:00N 46°18' W 084°06'6 6.0 240 / 61022.8 -2.8 5.2
2017-Nov-22 16:00N 46°12' W 084°06'1514.6 280 / 51022.8 -3.7 4.0
2017-Nov-22 15:00N 46°00' W 083°54'1312.7 310 / 131022.5 -3.4 4.6
2017-Nov-22 14:00N 45°48' W 083°48'1514.6 320 / 141022.5 -1.8 6.6
2017-Nov-22 13:00N 45°36' W 083°36'1010.3 310 / 101022.5 -2.6 7.6
2017-Nov-22 12:00N 45°30' W 083°24'1312.7 330 / 151021.510.8 -2.6 7.8
2017-Nov-22 11:00N 45°18' W 083°18'1514.7 350 / 231020.110.8 -2.8 7.9
2017-Nov-22 10:00N 45°06' W 083°06'6 6.0 340 / 221019.8 -2.2 7.6
2017-Nov-22 09:00N 45°00' W 083°06'1212.0 1018.410.8 -2.3 7.4
2017-Nov-22 08:00N 44°48' W 083°06'7 7.4 300 / 221017.7 -1.5 7.5
2017-Nov-22 07:00N 44°42' W 083°12'1212.0 310 / 261017.4 -1.4 7.1
2017-Nov-22 06:00N 44°30' W 083°12'7 7.4 320 / 221016.4 -1.3 6.7
2017-Nov-22 05:00N 44°24' W 083°06'1010.5 340 / 291015.0 -1.0 6.9
2017-Nov-22 04:00N 44°18' W 082°54'7 7.4 300 / 211014.3 -0.2 7.1
2017-Nov-22 03:00N 44°12' W 082°48'7 7.4 320 / 281013.3 0.6 7.3
2017-Nov-22 02:00N 44°06' W 082°42'7 7.4 310 / 241012.0 2.0 6.7
2017-Nov-22 01:00N 44°00' W 082°36'1312.8 290 / 311010.610.8 2.9 7.6
2017-Nov-22 00:00N 43°48' W 082°30'1212.0 300 / 191011.0 5.1 7.6
2017-Nov-21 23:00N 43°36' W 082°30'1212.0 250 / 181010.3 4.7 7.4
2017-Nov-21 22:00N 43°24' W 082°30'1312.8 260 / 161009.910.8 4.9 7.8
2017-Nov-21 21:00N 43°12' W 082°24'7 7.4 270 / 281006.6 6.8 8.3
2017-Nov-21 20:00N 43°06' W 082°18'0 0.0 200 / 141006.6 8.9 8.3
2017-Nov-21 19:00N 43°06' W 082°18'0 0.0 240 / 181006.2 9.2 8.3
2017-Nov-21 18:00N 43°06' W 082°18'0 0.0 230 / 211005.2 8.6 8.2
2017-Nov-21 17:00N 43°06' W 082°18'0 0.0 230 / 201004.9 8.2 8.2
2017-Nov-21 16:00N 43°06' W 082°18'0 0.0 220 / 221005.2 7.5 8.1
2017-Nov-21 15:00N 43°06' W 082°18'0 0.0 220 / 271004.5 6.6 8.1
2017-Nov-21 14:00N 43°06' W 082°18'0 0.0 210 / 271003.9 6.2 8.1
2017-Nov-21 13:00N 43°06' W 082°18'0 0.0 200 / 301003.9 5.9 8.1
2017-Nov-21 12:00N 43°06' W 082°18'0 0.0 200 / 301003.2 5.8 8.1
2017-Nov-21 11:00N 43°06' W 082°18'0 0.0 210 / 301003.9 5.7 8.1
2017-Nov-21 10:00N 43°06' W 082°18'0 0.0 200 / 261004.9 5.4 8.1
2017-Nov-21 09:00N 43°06' W 082°18'7 7.4 200 / 281004.9 5.8 8.1
2017-Nov-21 08:00N 43°00' W 082°24'7 7.4 200 / 191006.6 5.5 7.2
2017-Nov-21 07:00N 42°54' W 082°30'1212.0 220 / 131007.6 5.3 7.2
2017-Nov-21 06:00N 42°42' W 082°30'7 7.4 220 / 151008.9 5.2 7.3
2017-Nov-21 05:00N 42°36' W 082°36'7 7.5 210 / 191010.3 5.6 7.3
2017-Nov-21 04:00N 42°30' W 082°42'1110.7 210 / 211009.4 5.8 6.6
2017-Nov-21 03:00N 42°24' W 082°54'1110.7 210 / 221010.1 5.6 6.1
2017-Nov-21 02:00N 42°18' W 083°06'0 0.0 200 / 151010.8 6.0 6.1
2017-Nov-21 01:00N 42°18' W 083°06'4 4.4 190 / 91011.5 5.9 7.7
2017-Nov-21 00:00N 42°18' W 083°12'0 0.0 150 / 101011.8 7.5 13.2
2017-Nov-20 23:00N 42°18' W 083°12'0 0.0 200 / 121011.8 7.3 15.6
2017-Nov-20 22:00N 42°18' W 083°12'0 0.0 170 / 91012.1 8.3 15.4
2017-Nov-20 21:00N 42°18' W 083°12'0 0.0 210 / 221012.5 8.8 10.2
2017-Nov-20 20:00N 42°18' W 083°12'0 0.0 210 / 121012.8 8.9 9.8
2017-Nov-20 19:00N 42°18' W 083°12'0 0.0 220 / 101013.5 8.4 8.8
2017-Nov-20 18:00N 42°18' W 083°12'0 0.0 190 / 71014.2 7.3 8.1
2017-Nov-20 17:00N 42°18' W 083°12'0 0.0 190 / 101015.5 6.0 8.4
2017-Nov-20 16:00N 42°18' W 083°12'4 4.4 210 / 121016.5 4.3 7.2
2017-Nov-20 15:00N 42°18' W 083°06'0 0.0 240 / 161017.2 2.1 6.9
2017-Nov-20 14:00N 42°18' W 083°06'4 4.4 230 / 121017.5 0.4 5.9
2017-Nov-20 13:00N 42°18' W 083°00'0 0.0 230 / 141017.9 -0.0 6.0
2017-Nov-20 12:00N 42°18' W 083°00'0 0.0 200 / 111017.9 -0.4 6.0
2017-Nov-20 11:00N 42°18' W 083°00'0 0.0 220 / 111017.5 -0.2 6.1
2017-Nov-20 10:00N 42°18' W 083°00'0 0.0 220 / 111017.5 -0.4 6.1
2017-Nov-20 09:00N 42°18' W 083°00'0 0.0 230 / 121017.2 -0.1 6.2
2017-Nov-20 08:00N 42°18' W 083°00'0 0.0 230 / 91017.5 0.1 6.1
2017-Nov-20 07:00N 42°18' W 083°00'0 0.0 230 / 121017.2 0.1 6.1
2017-Nov-20 06:00N 42°18' W 083°00'0 0.0 230 / 101016.9 -0.1 5.9
2017-Nov-20 05:00N 42°18' W 083°00'0 0.0 250 / 121017.2 -0.1 6.0
2017-Nov-20 04:00N 42°18' W 083°00'0 0.0 270 / 51016.5 -0.2 6.0
2017-Nov-20 03:00N 42°18' W 083°00'0 0.0 270 / 121016.5 -0.0 6.1
2017-Nov-20 02:00N 42°18' W 083°00'0 0.0 280 / 71015.9 -0.0 6.2
2017-Nov-20 01:00N 42°18' W 083°00'0 0.0 290 / 41015.2 -0.0 6.3
2017-Nov-20 00:00N 42°18' W 083°00'0 0.0 290 / 81014.8 -0.0 6.4
2017-Nov-19 23:00N 42°18' W 083°00'0 0.0 280 / 181014.2 0.4 6.6
2017-Nov-19 22:00N 42°18' W 083°00'0 0.0 310 / 121013.5 1.2 6.7
2017-Nov-19 21:00N 42°18' W 083°00'0 0.0 300 / 141012.8 0.9 6.8
2017-Nov-19 20:00N 42°18' W 083°00'0 0.0 310 / 91012.1 1.5 6.8
2017-Nov-19 19:00N 42°18' W 083°00'0 0.0 270 / 161011.5 1.7 6.8
2017-Nov-19 18:00N 42°18' W 083°00'0 0.0 250 / 31011.5 1.7 6.9
2017-Nov-19 17:00N 42°18' W 083°00'0 0.0 310 / 71011.1 2.4 6.9
2017-Nov-19 16:00N 42°18' W 083°00'0 0.0 310 / 51011.5 1.9 6.9
2017-Nov-19 15:00N 42°18' W 083°00'0 0.0 280 / 121010.4 3.2 6.9
2017-Nov-19 14:00N 42°18' W 083°00'0 0.0 300 / 61010.1 2.8 6.8
2017-Nov-19 13:00N 42°18' W 083°00'0 0.0 270 / 121009.4 2.6 6.8
2017-Nov-19 12:00N 42°18' W 083°00'0 0.0 290 / 91008.4 2.8 6.9
2017-Nov-19 11:00N 42°18' W 083°00'0 0.0 280 / 91007.7 2.9 6.9
2017-Nov-19 10:00N 42°18' W 083°00'0 0.0 280 / 111006.4 3.4 7.0
2017-Nov-19 09:00N 42°18' W 083°00'0 0.0 320 / 141005.4 3.9 7.1
2017-Nov-19 08:00N 42°18' W 083°00'0 0.0 310 / 141004.3 3.9 7.1
2017-Nov-19 07:00N 42°18' W 083°00'7 7.5 300 / 151002.6 4.2 7.0
2017-Nov-19 06:00N 42°24' W 082°54'1110.7 300 / 17999.9 3.7 7.0
2017-Nov-19 05:00N 42°30' W 082°42'7 7.5 310 / 34997.2 4.2 7.8
2017-Nov-19 04:00N 42°36' W 082°36'7 7.4 320 / 17996.4 2.6 8.1
2017-Nov-19 03:00N 42°42' W 082°30'1212.0 310 / 16994.7 1.6 8.3
2017-Nov-19 02:00N 42°54' W 082°30'7 7.4 330 / 16994.0 2.3 8.4
2017-Nov-19 01:00N 43°00' W 082°24'1818.0 330 / 28993.4 3.3 8.6
2017-Nov-19 00:00N 43°18' W 082°24'1212.0 340 / 26993.710.8 5.1 8.9
2017-Nov-18 23:00N 43°30' W 082°24'1312.8 350 / 25994.0 5.4 5.1 8.5
2017-Nov-18 22:00N 43°42' W 082°30'1212.0 360 / 24993.7 5.3 8.1
2017-Nov-18 21:00N 43°54' W 082°30'1312.8 994.4 5.0 8.2
2017-Nov-18 20:00N 44°06' W 082°36'1312.7 350 / 14996.1 5.5 8.1
2017-Nov-18 19:00N 44°18' W 082°42'5714.2 010 / 15995.7 5.4 5.6 7.1
2017-Nov-18 15:00N 45°12' W 083°06'1514.7 020 / 15999.4 4.6 7.9
2017-Nov-18 14:00N 45°24' W 083°18'3 7.1 010 / 20999.8 4.8 8.3
2017-Nov-18 13:38N 45°26' W 083°21'213.2
2017-Nov-18 13:30N 45°27' W 083°22'613.2
2017-Nov-18 13:00N 45°33' W 083°27'3245.6
2017-Nov-18 13:00N 45°30' W 083°24'1020.7 360 / 151000.110.8 4.4 8.3
2017-Nov-18 12:30N 45°38' W 083°33'713.2
2017-Nov-18 11:59N 45°44' W 083°39'1212.5
2017-Nov-18 11:00N 45°54' W 083°48'7 7.3 360 / 71001.1 2.9 6.3
2017-Nov-18 10:00N 46°00' W 083°54'0 0.0 070 / 61000.8 2.3 4.7
2017-Nov-18 09:00N 46°00' W 083°54'0 0.0 120 / 41001.5 2.0 4.8
2017-Nov-18 08:00N 46°00' W 083°54'0 0.0 110 / 31002.5 2.1 4.9
2017-Nov-18 07:00N 46°00' W 083°54'7 7.3 180 / 91002.8 2.2 4.8
2017-Nov-18 06:00N 46°06' W 084°00'1010.3 150 / 121002.8 3.2 4.9
2017-Nov-18 05:00N 46°12' W 084°12'1212.0 150 / 131004.2 3.1 5.8
2017-Nov-18 04:00N 46°24' W 084°12'7 7.3 130 / 161004.2 2.5 6.0
2017-Nov-18 03:00N 46°30' W 084°18'4 4.1 130 / 101005.9 1.5 6.3
2017-Nov-18 02:00N 46°30' W 084°24'0 0.0 130 / 101007.5 0.9 6.9
2017-Nov-18 01:00N 46°30' W 084°24'8 8.3 120 / 131007.8 1.5 7.0
2017-Nov-18 00:00N 46°30' W 084°36'1514.6 120 / 261007.5 2.6 7.8
2017-Nov-17 23:00N 46°42' W 084°48'1010.2 150 / 321006.810.8 2.9 7.8
2017-Nov-17 22:00N 46°48' W 085°00'1212.3 150 / 291008.1 3.0 7.1
2017-Nov-17 21:00N 46°48' W 085°18'1413.7 140 / 241008.8 1.2 6.9
2017-Nov-17 20:00N 46°42' W 085°36'8 8.2 150 / 271009.1 0.8 7.1
2017-Nov-17 19:00N 46°42' W 085°48'1212.3 140 / 271008.8 0.7 6.9
2017-Nov-17 18:00N 46°42' W 086°06'1212.3 160 / 341010.2 1.6 7.2
2017-Nov-17 17:00N 46°42' W 086°24'1010.2 160 / 251012.9 1.9 7.3
2017-Nov-17 16:00N 46°36' W 086°36'1212.4 170 / 321013.2 2.2 7.4
2017-Nov-17 15:00N 46°36' W 086°54'1212.4 170 / 321012.9 2.1 6.8
2017-Nov-17 14:00N 46°36' W 087°12'8 8.2 170 / 271014.6 1.8 7.1
2017-Nov-17 13:00N 46°36' W 087°24'0 0.0 180 / 181016.6 -0.2 5.9
2017-Nov-17 12:00N 46°36' W 087°24'0 0.0 180 / 11017.6 -0.2 6.0
2017-Nov-17 11:00N 46°36' W 087°24'0 0.0 080 / 21018.6 -0.8 6.0
2017-Nov-17 10:00N 46°36' W 087°24'0 0.0 240 / 21019.6 -1.5 6.2
2017-Nov-17 09:00N 46°36' W 087°24'0 0.0 150 / 51020.7 -2.1 6.3
2017-Nov-17 08:00N 46°36' W 087°24'0 0.0 130 / 21022.7 -1.9 6.3
2017-Nov-17 07:00N 46°36' W 087°24'0 0.0 210 / 11022.7 -2.3 6.4
2017-Nov-17 06:00N 46°36' W 087°24'8 8.2 230 / 11023.4 -2.3 6.3
2017-Nov-17 05:00N 46°36' W 087°12'1212.4 150 / 161023.0 -2.3 7.1
2017-Nov-17 04:00N 46°36' W 086°54'1413.7 110 / 131023.7 -1.5 6.4
2017-Nov-17 03:00N 46°42' W 086°36'1212.3 100 / 61024.7 -1.5 7.3
2017-Nov-17 02:00N 46°42' W 086°18'1212.3 100 / 81024.7 -2.0 7.2
2017-Nov-17 01:00N 46°42' W 086°00'1413.7 050 / 101025.1 -2.3 7.1
2017-Nov-17 00:00N 46°48' W 085°42'1212.3 020 / 151024.410.8 -2.5 7.0
2017-Nov-16 23:00N 46°48' W 085°24'1212.3 010 / 161024.4 2.2 -2.5 7.2
2017-Nov-16 22:00N 46°48' W 085°06'1010.2 010 / 181023.4 -2.5 7.2
2017-Nov-16 21:00N 46°42' W 084°54'1413.7 350 / 211021.3 -2.0 8.1
2017-Nov-16 20:00N 46°36' W 084°36'7 7.3 340 / 201020.7 -1.6 8.2
2017-Nov-16 19:00N 46°42' W 084°30'0 0.0 340 / 161020.7 -1.9 7.7
2017-Nov-16 18:00N 46°42' W 084°30'0 0.0 350 / 201019.6 -1.5 7.8
2017-Nov-16 17:00N 46°42' W 084°30'0 0.0 020 / 241019.0 -1.7 7.8
2017-Nov-16 16:00N 46°42' W 084°30'0 0.0 360 / 191018.3 -1.4 7.8
2017-Nov-16 15:00N 46°42' W 084°30'0 0.0 1016.6 -1.8 7.8
2017-Nov-16 14:00N 46°42' W 084°30'0 0.0 1015.6 -1.2 7.9
2017-Nov-16 13:00N 46°42' W 084°30'0 0.0 020 / 261013.5 -1.3 7.9
2017-Nov-16 12:00N 46°42' W 084°30'0 0.0 360 / 231011.5 -0.7 7.9
2017-Nov-16 11:00N 46°42' W 084°30'0 0.0 360 / 241009.5 0.8 7.9
2017-Nov-16 10:00N 46°42' W 084°30'0 0.0 350 / 231007.5 0.8 7.9
2017-Nov-16 09:00N 46°42' W 084°30'0 0.0 1005.4 1.9 7.9
2017-Nov-16 08:00N 46°42' W 084°30'0 0.0 350 / 281003.7 2.8 8.0
2017-Nov-16 07:00N 46°42' W 084°30'0 0.0 330 / 201002.4 3.3 8.0
2017-Nov-16 06:00N 46°42' W 084°30'0 0.0 320 / 131001.4 2.7 8.0
2017-Nov-16 05:00N 46°42' W 084°30'0 0.0 330 / 131000.7 2.8 8.0
2017-Nov-16 04:00N 46°42' W 084°30'0 0.0 320 / 61000.7 2.2 7.9
2017-Nov-16 03:00N 46°42' W 084°30'0 0.0 060 / 71000.0 2.2 7.9
2017-Nov-16 02:00N 46°42' W 084°30'0 0.0 070 / 10999.7 1.6 7.9
2017-Nov-16 01:00N 46°42' W 084°30'7 7.3 070 / 14999.7 1.9 8.1
2017-Nov-16 00:00N 46°36' W 084°36'7 7.3 120 / 21999.3 3.0 8.3
2017-Nov-15 23:00N 46°30' W 084°30'4 4.1 100 / 81000.7 3.0 7.8
2017-Nov-15 22:00N 46°30' W 084°24'4 4.1 110 / 51002.4 3.8 7.4
2017-Nov-15 21:00N 46°30' W 084°18'0 0.0 130 / 61002.2 4.1 7.3
2017-Nov-15 20:00N 46°30' W 084°18'0 0.0 110 / 131002.5 4.6 7.3
2017-Nov-15 19:00N 46°30' W 084°18'7 7.3 120 / 61003.9 4.4 7.5
2017-Nov-15 18:00N 46°24' W 084°12'7 7.3 150 / 141005.2 4.6 7.0
2017-Nov-15 17:00N 46°18' W 084°06'1312.7 160 / 111006.9 4.4 6.5
2017-Nov-15 16:00N 46°06' W 084°00'1312.7 170 / 151008.6 4.5 5.0
2017-Nov-15 15:00N 45°54' W 083°54'1514.6 150 / 241009.9 5.1 6.7
2017-Nov-15 14:00N 45°42' W 083°42'1 3.9 160 / 211011.6 5.1 8.9
2017-Nov-15 13:45N 45°41' W 083°41'313.6
2017-Nov-15 13:30N 45°39' W 083°38'713.5
2017-Nov-15 13:00N 45°33' W 083°33'713.6
2017-Nov-15 12:30N 45°28' W 083°27'4 8.1
2017-Nov-15 12:00N 45°24' W 083°24'1514.7 160 / 241014.0 5.2 8.7
2017-Nov-15 11:00N 45°12' W 083°12'1312.7 170 / 211015.7 6.0 8.3
2017-Nov-15 10:00N 45°00' W 083°06'1312.7 180 / 221016.7 5.4 6.6 8.5
2017-Nov-15 09:00N 44°48' W 083°00'1312.7 180 / 161018.1 6.4 8.1
2017-Nov-15 08:00N 44°36' W 082°54'1312.7 190 / 211019.4 6.3 7.3
2017-Nov-15 07:00N 44°24' W 082°48'1918.5 170 / 201019.8 6.1 8.2
2017-Nov-15 06:00N 44°06' W 082°42'2612.8 180 / 221021.1 5.6 8.6
2017-Nov-15 04:00N 43°42' W 082°30'1212.0 190 / 171022.1 5.6 8.5
2017-Nov-15 03:00N 43°30' W 082°30'1312.8 180 / 171023.2 5.4 5.7 8.6
2017-Nov-15 02:00N 43°18' W 082°24'1818.0 180 / 161023.5 5.6 9.1
2017-Nov-15 01:00N 43°00' W 082°24'7 7.4 160 / 111023.8 4.6 9.0
2017-Nov-15 00:00N 42°54' W 082°30'6 6.0 170 / 91024.2 4.7 9.0
2017-Nov-14 23:00N 42°48' W 082°30'1212.0 180 / 81024.8 5.3 8.7
2017-Nov-14 22:00N 42°36' W 082°30'7 7.5 150 / 51024.8 6.0 8.6
2017-Nov-14 21:00N 42°30' W 082°36'1110.7 130 / 121025.0 6.1 8.4
2017-Nov-14 20:00N 42°24' W 082°48'1110.7 150 / 141025.3 6.6 7.2
2017-Nov-14 19:00N 42°18' W 083°00'4 4.4 250 / 71026.0 7.6 7.0
2017-Nov-14 18:00N 42°18' W 083°06'4 4.4 270 / 71026.7 7.2 12.7
2017-Nov-14 17:00N 42°18' W 083°12'0 0.0 260 / 81027.4 7.1 14.9
2017-Nov-14 16:00N 42°18' W 083°12'0 0.0 240 / 51028.4 5.9 16.3
2017-Nov-14 15:00N 42°18' W 083°12'0 0.0 280 / 21028.7 5.1 17.2
2017-Nov-14 14:00N 42°18' W 083°12'0 0.0 340 / 51029.4 3.7 16.4
2017-Nov-14 13:00N 42°18' W 083°12'0 0.0 280 / 21029.4 3.3 16.5
2017-Nov-14 12:00N 42°18' W 083°12'0 0.0 320 / 21029.4 3.5 13.6
2017-Nov-14 11:00N 42°18' W 083°12'0 0.0 280 / 51028.7 3.4 13.6
2017-Nov-14 10:00N 42°18' W 083°12'0 0.0 260 / 41029.1 3.2 12.6
2017-Nov-14 09:00N 42°18' W 083°12'0 0.0 260 / 41029.4 3.4 12.8
2017-Nov-14 08:00N 42°18' W 083°12'4 4.4 280 / 61029.4 3.4 13.4
2017-Nov-14 07:00N 42°18' W 083°06'0 0.0 280 / 31029.4 3.6 11.6
2017-Nov-14 06:00N 42°18' W 083°06'1110.7 280 / 81029.4 4.3 6.8
2017-Nov-14 05:00N 42°24' W 082°54'1110.7 270 / 81028.7 5.3 6.8
2017-Nov-14 04:00N 42°30' W 082°42'7 7.5 200 / 121028.4 5.5 8.3
2017-Nov-14 03:00N 42°36' W 082°36'7 7.4 160 / 51029.2 4.3 8.4
2017-Nov-14 02:00N 42°42' W 082°30'1212.0 170 / 81029.6 4.4 8.7
2017-Nov-14 01:00N 42°54' W 082°30'7 7.4 150 / 51029.6 4.2 9.0
2017-Nov-14 00:00N 43°00' W 082°24'1212.0 250 / 41029.9 4.5 9.3
2017-Nov-13 23:00N 43°12' W 082°24'6 6.0 330 / 51029.9 4.6 9.5
2017-Nov-13 22:00N 43°18' W 082°24'1918.5 280 / 121029.6 5.4 4.6 9.1
2017-Nov-13 21:00N 43°36' W 082°30'1212.0 280 / 121029.2 4.4 8.5
2017-Nov-13 20:00N 43°48' W 082°30'1212.0 270 / 181028.9 4.7 8.8
2017-Nov-13 19:00N 44°00' W 082°30'1312.8 260 / 131028.9 5.0 8.6
2017-Nov-13 18:00N 44°12' W 082°36'1312.7 310 / 121029.2 4.7 8.8
2017-Nov-13 17:00N 44°24' W 082°42'   300 / 121029.6 4.4 7.3
Track history (hours):
 
Tides and Currents Weather Stations Pressure Air Temp Water Temp Dewpoint Dewpoint Depression Visibility Wind Speed Wind Dir Waves Ship Positions

Str Lee A Tregurtha

Owner: THE INTERLAKE STEAMSHIP COMPANY, Middleburg Heights, OH. More information available from US FCC via Universal Licensing System and Coast Guard Vessel Documentation Center.

Last reported at 2017-Nov-23 14:00 UTC. Time now 2017-Nov-23 15:21 UTC.
Position N 46°36' W 087°24'.

Length 252 m; draft 8.4 m.

Type: Cargo ship. MMSI: 366904950.

Wind from 200 at 1 knots

Barometer 1012.5 mb
Air temperature -1.5 ° C
Water temperature 5.2 ° C

Date/timePositionNaut miles runAvg speedWind from/ knotsBaromVisibWave heightAir tempDewpointWater temp
2017-Nov-23 14:00N 46°36' W 087°24'0 0.0 200 / 11012.5 -1.5 5.2
2017-Nov-23 13:00N 46°36' W 087°24'0 0.0 120 / 11012.9 -1.6 5.1
2017-Nov-23 12:00N 46°36' W 087°24'0 0.0 230 / 21012.9 -1.6 5.2
2017-Nov-23 11:00N 46°36' W 087°24'4 4.1 090 / 11013.5 -1.7 5.3
2017-Nov-23 10:00N 46°36' W 087°18'1616.5 250 / 141012.9 -1.6 6.1
2017-Nov-23 09:00N 46°36' W 086°54'1212.4 230 / 201012.9 -1.9 5.8
2017-Nov-23 08:00N 46°36' W 086°36'8 8.2 240 / 161013.5 -1.5 6.0
2017-Nov-23 07:00N 46°36' W 086°24'1413.7 230 / 201014.2 -1.5 6.3
2017-Nov-23 06:00N 46°42' W 086°06'1413.7 240 / 221014.2 -1.0 6.2
2017-Nov-23 05:00N 46°48' W 085°48'1413.7 210 / 211015.2 -1.8 6.5
2017-Nov-23 04:00N 46°42' W 085°30'1010.2 210 / 241014.9 -2.0 6.6
2017-Nov-23 03:00N 46°48' W 085°18'1212.3 210 / 181016.6 -2.0 5.7
2017-Nov-23 02:00N 46°48' W 085°00'1514.6 220 / 121018.3 -2.2 6.3
2017-Nov-23 01:00N 46°36' W 084°48'1010.2 220 / 111019.010.8 -1.0 7.3
2017-Nov-23 00:00N 46°30' W 084°36'8 8.3 220 / 81020.3 -1.6 6.0
2017-Nov-22 23:00N 46°30' W 084°24'0 0.0 220 / 101021.0 -2.1 5.5
2017-Nov-22 22:00N 46°30' W 084°24'4 4.1 230 / 101022.0 -1.7 5.6
2017-Nov-22 21:00N 46°30' W 084°18'0 0.0 250 / 101021.5 -1.6 5.6
2017-Nov-22 20:00N 46°30' W 084°18'0 0.0 130 / 31021.5 -2.8 5.6
2017-Nov-22 19:00N 46°30' W 084°18'7 7.3 160 / 31022.1 -2.8 5.5
2017-Nov-22 18:00N 46°24' W 084°12'7 7.3 240 / 21022.5 -2.6 5.5
2017-Nov-22 17:00N 46°18' W 084°06'6 6.0 240 / 61022.8 -2.8 5.2
2017-Nov-22 16:00N 46°12' W 084°06'1514.6 280 / 51022.8 -3.7 4.0
2017-Nov-22 15:00N 46°00' W 083°54'1312.7 310 / 131022.5 -3.4 4.6
2017-Nov-22 14:00N 45°48' W 083°48'1514.6 320 / 141022.5 -1.8 6.6
2017-Nov-22 13:00N 45°36' W 083°36'1010.3 310 / 101022.5 -2.6 7.6
2017-Nov-22 12:00N 45°30' W 083°24'1312.7 330 / 151021.510.8 -2.6 7.8
2017-Nov-22 11:00N 45°18' W 083°18'1514.7 350 / 231020.110.8 -2.8 7.9
2017-Nov-22 10:00N 45°06' W 083°06'6 6.0 340 / 221019.8 -2.2 7.6
2017-Nov-22 09:00N 45°00' W 083°06'1212.0 1018.410.8 -2.3 7.4
2017-Nov-22 08:00N 44°48' W 083°06'7 7.4 300 / 221017.7 -1.5 7.5
2017-Nov-22 07:00N 44°42' W 083°12'1212.0 310 / 261017.4 -1.4 7.1
2017-Nov-22 06:00N 44°30' W 083°12'7 7.4 320 / 221016.4 -1.3 6.7
2017-Nov-22 05:00N 44°24' W 083°06'1010.5 340 / 291015.0 -1.0 6.9
2017-Nov-22 04:00N 44°18' W 082°54'7 7.4 300 / 211014.3 -0.2 7.1
2017-Nov-22 03:00N 44°12' W 082°48'7 7.4 320 / 281013.3 0.6 7.3
2017-Nov-22 02:00N 44°06' W 082°42'7 7.4 310 / 241012.0 2.0 6.7
2017-Nov-22 01:00N 44°00' W 082°36'1312.8 290 / 311010.610.8 2.9 7.6
2017-Nov-22 00:00N 43°48' W 082°30'1212.0 300 / 191011.0 5.1 7.6
2017-Nov-21 23:00N 43°36' W 082°30'1212.0 250 / 181010.3 4.7 7.4
2017-Nov-21 22:00N 43°24' W 082°30'1312.8 260 / 161009.910.8 4.9 7.8
2017-Nov-21 21:00N 43°12' W 082°24'7 7.4 270 / 281006.6 6.8 8.3
2017-Nov-21 20:00N 43°06' W 082°18'0 0.0 200 / 141006.6 8.9 8.3
2017-Nov-21 19:00N 43°06' W 082°18'0 0.0 240 / 181006.2 9.2 8.3
2017-Nov-21 18:00N 43°06' W 082°18'0 0.0 230 / 211005.2 8.6 8.2
2017-Nov-21 17:00N 43°06' W 082°18'0 0.0 230 / 201004.9 8.2 8.2
2017-Nov-21 16:00N 43°06' W 082°18'0 0.0 220 / 221005.2 7.5 8.1
2017-Nov-21 15:00N 43°06' W 082°18'0 0.0 220 / 271004.5 6.6 8.1
2017-Nov-21 14:00N 43°06' W 082°18'0 0.0 210 / 271003.9 6.2 8.1
2017-Nov-21 13:00N 43°06' W 082°18'0 0.0 200 / 301003.9 5.9 8.1
2017-Nov-21 12:00N 43°06' W 082°18'0 0.0 200 / 301003.2 5.8 8.1
2017-Nov-21 11:00N 43°06' W 082°18'0 0.0 210 / 301003.9 5.7 8.1
2017-Nov-21 10:00N 43°06' W 082°18'0 0.0 200 / 261004.9 5.4 8.1
2017-Nov-21 09:00N 43°06' W 082°18'7 7.4 200 / 281004.9 5.8 8.1
2017-Nov-21 08:00N 43°00' W 082°24'7 7.4 200 / 191006.6 5.5 7.2
2017-Nov-21 07:00N 42°54' W 082°30'1212.0 220 / 131007.6 5.3 7.2
2017-Nov-21 06:00N 42°42' W 082°30'7 7.4 220 / 151008.9 5.2 7.3
2017-Nov-21 05:00N 42°36' W 082°36'7 7.5 210 / 191010.3 5.6 7.3
2017-Nov-21 04:00N 42°30' W 082°42'1110.7 210 / 211009.4 5.8 6.6
2017-Nov-21 03:00N 42°24' W 082°54'1110.7 210 / 221010.1 5.6 6.1
2017-Nov-21 02:00N 42°18' W 083°06'0 0.0 200 / 151010.8 6.0 6.1
2017-Nov-21 01:00N 42°18' W 083°06'4 4.4 190 / 91011.5 5.9 7.7
2017-Nov-21 00:00N 42°18' W 083°12'0 0.0 150 / 101011.8 7.5 13.2
2017-Nov-20 23:00N 42°18' W 083°12'0 0.0 200 / 121011.8 7.3 15.6
2017-Nov-20 22:00N 42°18' W 083°12'0 0.0 170 / 91012.1 8.3 15.4
2017-Nov-20 21:00N 42°18' W 083°12'0 0.0 210 / 221012.5 8.8 10.2
2017-Nov-20 20:00N 42°18' W 083°12'0 0.0 210 / 121012.8 8.9 9.8
2017-Nov-20 19:00N 42°18' W 083°12'0 0.0 220 / 101013.5 8.4 8.8
2017-Nov-20 18:00N 42°18' W 083°12'0 0.0 190 / 71014.2 7.3 8.1
2017-Nov-20 17:00N 42°18' W 083°12'0 0.0 190 / 101015.5 6.0 8.4
2017-Nov-20 16:00N 42°18' W 083°12'4 4.4 210 / 121016.5 4.3 7.2
2017-Nov-20 15:00N 42°18' W 083°06'0 0.0 240 / 161017.2 2.1 6.9
2017-Nov-20 14:00N 42°18' W 083°06'4 4.4 230 / 121017.5 0.4 5.9
2017-Nov-20 13:00N 42°18' W 083°00'0 0.0 230 / 141017.9 -0.0 6.0
2017-Nov-20 12:00N 42°18' W 083°00'0 0.0 200 / 111017.9 -0.4 6.0
2017-Nov-20 11:00N 42°18' W 083°00'0 0.0 220 / 111017.5 -0.2 6.1
2017-Nov-20 10:00N 42°18' W 083°00'0 0.0 220 / 111017.5 -0.4 6.1
2017-Nov-20 09:00N 42°18' W 083°00'0 0.0 230 / 121017.2 -0.1 6.2
2017-Nov-20 08:00N 42°18' W 083°00'0 0.0 230 / 91017.5 0.1 6.1
2017-Nov-20 07:00N 42°18' W 083°00'0 0.0 230 / 121017.2 0.1 6.1
2017-Nov-20 06:00N 42°18' W 083°00'0 0.0 230 / 101016.9 -0.1 5.9
2017-Nov-20 05:00N 42°18' W 083°00'0 0.0 250 / 121017.2 -0.1 6.0
2017-Nov-20 04:00N 42°18' W 083°00'0 0.0 270 / 51016.5 -0.2 6.0
2017-Nov-20 03:00N 42°18' W 083°00'0 0.0 270 / 121016.5 -0.0 6.1
2017-Nov-20 02:00N 42°18' W 083°00'0 0.0 280 / 71015.9 -0.0 6.2
2017-Nov-20 01:00N 42°18' W 083°00'0 0.0 290 / 41015.2 -0.0 6.3
2017-Nov-20 00:00N 42°18' W 083°00'0 0.0 290 / 81014.8 -0.0 6.4
2017-Nov-19 23:00N 42°18' W 083°00'0 0.0 280 / 181014.2 0.4 6.6
2017-Nov-19 22:00N 42°18' W 083°00'0 0.0 310 / 121013.5 1.2 6.7
2017-Nov-19 21:00N 42°18' W 083°00'0 0.0 300 / 141012.8 0.9 6.8
2017-Nov-19 20:00N 42°18' W 083°00'0 0.0 310 / 91012.1 1.5 6.8
2017-Nov-19 19:00N 42°18' W 083°00'0 0.0 270 / 161011.5 1.7 6.8
2017-Nov-19 18:00N 42°18' W 083°00'0 0.0 250 / 31011.5 1.7 6.9
2017-Nov-19 17:00N 42°18' W 083°00'0 0.0 310 / 71011.1 2.4 6.9
2017-Nov-19 16:00N 42°18' W 083°00'0 0.0 310 / 51011.5 1.9 6.9
2017-Nov-19 15:00N 42°18' W 083°00'0 0.0 280 / 121010.4 3.2 6.9
2017-Nov-19 14:00N 42°18' W 083°00'0 0.0 300 / 61010.1 2.8 6.8
2017-Nov-19 13:00N 42°18' W 083°00'0 0.0 270 / 121009.4 2.6 6.8
2017-Nov-19 12:00N 42°18' W 083°00'0 0.0 290 / 91008.4 2.8 6.9
2017-Nov-19 11:00N 42°18' W 083°00'0 0.0 280 / 91007.7 2.9 6.9
2017-Nov-19 10:00N 42°18' W 083°00'0 0.0 280 / 111006.4 3.4 7.0
2017-Nov-19 09:00N 42°18' W 083°00'0 0.0 320 / 141005.4 3.9 7.1
2017-Nov-19 08:00N 42°18' W 083°00'0 0.0 310 / 141004.3 3.9 7.1
2017-Nov-19 07:00N 42°18' W 083°00'7 7.5 300 / 151002.6 4.2 7.0
2017-Nov-19 06:00N 42°24' W 082°54'1110.7 300 / 17999.9 3.7 7.0
2017-Nov-19 05:00N 42°30' W 082°42'7 7.5 310 / 34997.2 4.2 7.8
2017-Nov-19 04:00N 42°36' W 082°36'7 7.4 320 / 17996.4 2.6 8.1
2017-Nov-19 03:00N 42°42' W 082°30'1212.0 310 / 16994.7 1.6 8.3
2017-Nov-19 02:00N 42°54' W 082°30'7 7.4 330 / 16994.0 2.3 8.4
2017-Nov-19 01:00N 43°00' W 082°24'1818.0 330 / 28993.4 3.3 8.6
2017-Nov-19 00:00N 43°18' W 082°24'1212.0 340 / 26993.710.8 5.1 8.9
2017-Nov-18 23:00N 43°30' W 082°24'1312.8 350 / 25994.0 5.4 5.1 8.5
2017-Nov-18 22:00N 43°42' W 082°30'1212.0 360 / 24993.7 5.3 8.1
2017-Nov-18 21:00N 43°54' W 082°30'1312.8 994.4 5.0 8.2
2017-Nov-18 20:00N 44°06' W 082°36'1312.7 350 / 14996.1 5.5 8.1
2017-Nov-18 19:00N 44°18' W 082°42'5714.2 010 / 15995.7 5.4 5.6 7.1
2017-Nov-18 15:00N 45°12' W 083°06'1514.7 020 / 15999.4 4.6 7.9
2017-Nov-18 14:00N 45°24' W 083°18'3 7.1 010 / 20999.8 4.8 8.3
2017-Nov-18 13:38N 45°26' W 083°21'213.2
2017-Nov-18 13:30N 45°27' W 083°22'613.2
2017-Nov-18 13:00N 45°33' W 083°27'3245.6
2017-Nov-18 13:00N 45°30' W 083°24'1020.7 360 / 151000.110.8 4.4 8.3
2017-Nov-18 12:30N 45°38' W 083°33'713.2
2017-Nov-18 11:59N 45°44' W 083°39'1212.5
2017-Nov-18 11:00N 45°54' W 083°48'7 7.3 360 / 71001.1 2.9 6.3
2017-Nov-18 10:00N 46°00' W 083°54'0 0.0 070 / 61000.8 2.3 4.7
2017-Nov-18 09:00N 46°00' W 083°54'0 0.0 120 / 41001.5 2.0 4.8
2017-Nov-18 08:00N 46°00' W 083°54'0 0.0 110 / 31002.5 2.1 4.9
2017-Nov-18 07:00N 46°00' W 083°54'7 7.3 180 / 91002.8 2.2 4.8
2017-Nov-18 06:00N 46°06' W 084°00'1010.3 150 / 121002.8 3.2 4.9
2017-Nov-18 05:00N 46°12' W 084°12'1212.0 150 / 131004.2 3.1 5.8
2017-Nov-18 04:00N 46°24' W 084°12'7 7.3 130 / 161004.2 2.5 6.0
2017-Nov-18 03:00N 46°30' W 084°18'4 4.1 130 / 101005.9 1.5 6.3
2017-Nov-18 02:00N 46°30' W 084°24'0 0.0 130 / 101007.5 0.9 6.9
2017-Nov-18 01:00N 46°30' W 084°24'8 8.3 120 / 131007.8 1.5 7.0
2017-Nov-18 00:00N 46°30' W 084°36'1514.6 120 / 261007.5 2.6 7.8
2017-Nov-17 23:00N 46°42' W 084°48'1010.2 150 / 321006.810.8 2.9 7.8
2017-Nov-17 22:00N 46°48' W 085°00'1212.3 150 / 291008.1 3.0 7.1
2017-Nov-17 21:00N 46°48' W 085°18'1413.7 140 / 241008.8 1.2 6.9
2017-Nov-17 20:00N 46°42' W 085°36'8 8.2 150 / 271009.1 0.8 7.1
2017-Nov-17 19:00N 46°42' W 085°48'1212.3 140 / 271008.8 0.7 6.9
2017-Nov-17 18:00N 46°42' W 086°06'1212.3 160 / 341010.2 1.6 7.2
2017-Nov-17 17:00N 46°42' W 086°24'1010.2 160 / 251012.9 1.9 7.3
2017-Nov-17 16:00N 46°36' W 086°36'1212.4 170 / 321013.2 2.2 7.4
2017-Nov-17 15:00N 46°36' W 086°54'1212.4 170 / 321012.9 2.1 6.8
2017-Nov-17 14:00N 46°36' W 087°12'8 8.2 170 / 271014.6 1.8 7.1
2017-Nov-17 13:00N 46°36' W 087°24'0 0.0 180 / 181016.6 -0.2 5.9
2017-Nov-17 12:00N 46°36' W 087°24'0 0.0 180 / 11017.6 -0.2 6.0
2017-Nov-17 11:00N 46°36' W 087°24'0 0.0 080 / 21018.6 -0.8 6.0
2017-Nov-17 10:00N 46°36' W 087°24'0 0.0 240 / 21019.6 -1.5 6.2
2017-Nov-17 09:00N 46°36' W 087°24'0 0.0 150 / 51020.7 -2.1 6.3
2017-Nov-17 08:00N 46°36' W 087°24'0 0.0 130 / 21022.7 -1.9 6.3
2017-Nov-17 07:00N 46°36' W 087°24'0 0.0 210 / 11022.7 -2.3 6.4
2017-Nov-17 06:00N 46°36' W 087°24'8 8.2 230 / 11023.4 -2.3 6.3
2017-Nov-17 05:00N 46°36' W 087°12'1212.4 150 / 161023.0 -2.3 7.1
2017-Nov-17 04:00N 46°36' W 086°54'1413.7 110 / 131023.7 -1.5 6.4
2017-Nov-17 03:00N 46°42' W 086°36'1212.3 100 / 61024.7 -1.5 7.3
2017-Nov-17 02:00N 46°42' W 086°18'1212.3 100 / 81024.7 -2.0 7.2
2017-Nov-17 01:00N 46°42' W 086°00'1413.7 050 / 101025.1 -2.3 7.1
2017-Nov-17 00:00N 46°48' W 085°42'1212.3 020 / 151024.410.8 -2.5 7.0
2017-Nov-16 23:00N 46°48' W 085°24'1212.3 010 / 161024.4 2.2 -2.5 7.2
2017-Nov-16 22:00N 46°48' W 085°06'1010.2 010 / 181023.4 -2.5 7.2
2017-Nov-16 21:00N 46°42' W 084°54'1413.7 350 / 211021.3 -2.0 8.1
2017-Nov-16 20:00N 46°36' W 084°36'7 7.3 340 / 201020.7 -1.6 8.2
2017-Nov-16 19:00N 46°42' W 084°30'0 0.0 340 / 161020.7 -1.9 7.7
2017-Nov-16 18:00N 46°42' W 084°30'0 0.0 350 / 201019.6 -1.5 7.8
2017-Nov-16 17:00N 46°42' W 084°30'0 0.0 020 / 241019.0 -1.7 7.8
2017-Nov-16 16:00N 46°42' W 084°30'0 0.0 360 / 191018.3 -1.4 7.8
2017-Nov-16 15:00N 46°42' W 084°30'0 0.0 1016.6 -1.8 7.8
2017-Nov-16 14:00N 46°42' W 084°30'0 0.0 1015.6 -1.2 7.9
2017-Nov-16 13:00N 46°42' W 084°30'0 0.0 020 / 261013.5 -1.3 7.9
2017-Nov-16 12:00N 46°42' W 084°30'0 0.0 360 / 231011.5 -0.7 7.9
2017-Nov-16 11:00N 46°42' W 084°30'0 0.0 360 / 241009.5 0.8 7.9
2017-Nov-16 10:00N 46°42' W 084°30'0 0.0 350 / 231007.5 0.8 7.9
2017-Nov-16 09:00N 46°42' W 084°30'0 0.0 1005.4 1.9 7.9
2017-Nov-16 08:00N 46°42' W 084°30'0 0.0 350 / 281003.7 2.8 8.0
2017-Nov-16 07:00N 46°42' W 084°30'0 0.0 330 / 201002.4 3.3 8.0
2017-Nov-16 06:00N 46°42' W 084°30'0 0.0 320 / 131001.4 2.7 8.0
2017-Nov-16 05:00N 46°42' W 084°30'0 0.0 330 / 131000.7 2.8 8.0
2017-Nov-16 04:00N 46°42' W 084°30'0 0.0 320 / 61000.7 2.2 7.9
2017-Nov-16 03:00N 46°42' W 084°30'0 0.0 060 / 71000.0 2.2 7.9
2017-Nov-16 02:00N 46°42' W 084°30'0 0.0 070 / 10999.7 1.6 7.9
2017-Nov-16 01:00N 46°42' W 084°30'7 7.3 070 / 14999.7 1.9 8.1
2017-Nov-16 00:00N 46°36' W 084°36'7 7.3 120 / 21999.3 3.0 8.3
2017-Nov-15 23:00N 46°30' W 084°30'4 4.1 100 / 81000.7 3.0 7.8
2017-Nov-15 22:00N 46°30' W 084°24'4 4.1 110 / 51002.4 3.8 7.4
2017-Nov-15 21:00N 46°30' W 084°18'0 0.0 130 / 61002.2 4.1 7.3
2017-Nov-15 20:00N 46°30' W 084°18'0 0.0 110 / 131002.5 4.6 7.3
2017-Nov-15 19:00N 46°30' W 084°18'7 7.3 120 / 61003.9 4.4 7.5
2017-Nov-15 18:00N 46°24' W 084°12'7 7.3 150 / 141005.2 4.6 7.0
2017-Nov-15 17:00N 46°18' W 084°06'1312.7 160 / 111006.9 4.4 6.5
2017-Nov-15 16:00N 46°06' W 084°00'1312.7 170 / 151008.6 4.5 5.0
2017-Nov-15 15:00N 45°54' W 083°54'1514.6 150 / 241009.9 5.1 6.7
2017-Nov-15 14:00N 45°42' W 083°42'1 3.9 160 / 211011.6 5.1 8.9
2017-Nov-15 13:45N 45°41' W 083°41'313.6
2017-Nov-15 13:30N 45°39' W 083°38'713.5
2017-Nov-15 13:00N 45°33' W 083°33'713.6
2017-Nov-15 12:30N 45°28' W 083°27'4 8.1
2017-Nov-15 12:00N 45°24' W 083°24'1514.7 160 / 241014.0 5.2 8.7
2017-Nov-15 11:00N 45°12' W 083°12'1312.7 170 / 211015.7 6.0 8.3
2017-Nov-15 10:00N 45°00' W 083°06'1312.7 180 / 221016.7 5.4 6.6 8.5
2017-Nov-15 09:00N 44°48' W 083°00'1312.7 180 / 161018.1 6.4 8.1
2017-Nov-15 08:00N 44°36' W 082°54'1312.7 190 / 211019.4 6.3 7.3
2017-Nov-15 07:00N 44°24' W 082°48'1918.5 170 / 201019.8 6.1 8.2
2017-Nov-15 06:00N 44°06' W 082°42'2612.8 180 / 221021.1 5.6 8.6
2017-Nov-15 04:00N 43°42' W 082°30'1212.0 190 / 171022.1 5.6 8.5
2017-Nov-15 03:00N 43°30' W 082°30'1312.8 180 / 171023.2 5.4 5.7 8.6
2017-Nov-15 02:00N 43°18' W 082°24'1818.0 180 / 161023.5 5.6 9.1
2017-Nov-15 01:00N 43°00' W 082°24'7 7.4 160 / 111023.8 4.6 9.0
2017-Nov-15 00:00N 42°54' W 082°30'6 6.0 170 / 91024.2 4.7 9.0
2017-Nov-14 23:00N 42°48' W 082°30'1212.0 180 / 81024.8 5.3 8.7
2017-Nov-14 22:00N 42°36' W 082°30'7 7.5 150 / 51024.8 6.0 8.6
2017-Nov-14 21:00N 42°30' W 082°36'1110.7 130 / 121025.0 6.1 8.4
2017-Nov-14 20:00N 42°24' W 082°48'1110.7 150 / 141025.3 6.6 7.2
2017-Nov-14 19:00N 42°18' W 083°00'4 4.4 250 / 71026.0 7.6 7.0
2017-Nov-14 18:00N 42°18' W 083°06'4 4.4 270 / 71026.7 7.2 12.7
2017-Nov-14 17:00N 42°18' W 083°12'0 0.0 260 / 81027.4 7.1 14.9
2017-Nov-14 16:00N 42°18' W 083°12'0 0.0 240 / 51028.4 5.9 16.3
2017-Nov-14 15:00N 42°18' W 083°12'0 0.0 280 / 21028.7 5.1 17.2
2017-Nov-14 14:00N 42°18' W 083°12'0 0.0 340 / 51029.4 3.7 16.4
2017-Nov-14 13:00N 42°18' W 083°12'0 0.0 280 / 21029.4 3.3 16.5
2017-Nov-14 12:00N 42°18' W 083°12'0 0.0 320 / 21029.4 3.5 13.6
2017-Nov-14 11:00N 42°18' W 083°12'0 0.0 280 / 51028.7 3.4 13.6
2017-Nov-14 10:00N 42°18' W 083°12'0 0.0 260 / 41029.1 3.2 12.6
2017-Nov-14 09:00N 42°18' W 083°12'0 0.0 260 / 41029.4 3.4 12.8
2017-Nov-14 08:00N 42°18' W 083°12'4 4.4 280 / 61029.4 3.4 13.4
2017-Nov-14 07:00N 42°18' W 083°06'0 0.0 280 / 31029.4 3.6 11.6
2017-Nov-14 06:00N 42°18' W 083°06'1110.7 280 / 81029.4 4.3 6.8
2017-Nov-14 05:00N 42°24' W 082°54'1110.7 270 / 81028.7 5.3 6.8
2017-Nov-14 04:00N 42°30' W 082°42'7 7.5 200 / 121028.4 5.5 8.3
2017-Nov-14 03:00N 42°36' W 082°36'7 7.4 160 / 51029.2 4.3 8.4
2017-Nov-14 02:00N 42°42' W 082°30'1212.0 170 / 81029.6 4.4 8.7
2017-Nov-14 01:00N 42°54' W 082°30'7 7.4 150 / 51029.6 4.2 9.0
2017-Nov-14 00:00N 43°00' W 082°24'1212.0 250 / 41029.9 4.5 9.3
2017-Nov-13 23:00N 43°12' W 082°24'6 6.0 330 / 51029.9 4.6 9.5
2017-Nov-13 22:00N 43°18' W 082°24'1918.5 280 / 121029.6 5.4 4.6 9.1
2017-Nov-13 21:00N 43°36' W 082°30'1212.0 280 / 121029.2 4.4 8.5
2017-Nov-13 20:00N 43°48' W 082°30'1212.0 270 / 181028.9 4.7 8.8
2017-Nov-13 19:00N 44°00' W 082°30'1312.8 260 / 131028.9 5.0 8.6
2017-Nov-13 18:00N 44°12' W 082°36'1312.7 310 / 121029.2 4.7 8.8
2017-Nov-13 17:00N 44°24' W 082°42'   300 / 121029.6 4.4 7.3

Dump ship's entire track history